createdAt,value
2018-12-12T00:00:00.897Z,71.43
2018-12-12T00:02:30.140Z,70.98
2018-12-12T00:04:59.324Z,70.85
2018-12-12T00:07:28.680Z,70.54
2018-12-12T00:09:57.858Z,70.96
2018-12-12T00:12:27.000Z,70.69
2018-12-12T00:14:56.219Z,70.94
2018-12-12T00:17:25.333Z,70.91
2018-12-12T00:19:54.528Z,70.77
2018-12-12T00:22:23.670Z,70.91
2018-12-12T00:24:52.833Z,71.12
2018-12-12T00:27:22.004Z,71.36
2018-12-12T00:29:51.191Z,71.69
2018-12-12T00:32:20.295Z,72.02
2018-12-12T00:34:49.434Z,72.23
2018-12-12T00:37:18.624Z,72.33
2018-12-12T00:39:47.853Z,72.91
2018-12-12T00:42:17.863Z,73.00
2018-12-12T00:44:47.313Z,72.79
2018-12-12T00:47:16.627Z,73.21
2018-12-12T00:49:45.815Z,73.52
2018-12-12T00:52:14.972Z,73.22
2018-12-12T00:54:44.508Z,73.62
2018-12-12T00:57:13.663Z,74.15
2018-12-12T00:59:43.146Z,74.00
2018-12-12T01:02:12.500Z,74.02
2018-12-12T01:04:41.668Z,74.23
2018-12-12T01:07:10.840Z,73.88
2018-12-12T01:09:40.020Z,73.64
2018-12-12T01:12:12.612Z,74.04
2018-12-12T01:14:41.882Z,74.12
2018-12-12T01:17:11.035Z,74.38
2018-12-12T01:19:40.202Z,74.17
2018-12-12T01:22:09.401Z,74.69
2018-12-12T01:24:38.583Z,74.46
2018-12-12T01:27:07.728Z,74.91
2018-12-12T01:29:36.920Z,74.81
2018-12-12T01:32:06.165Z,75.40
2018-12-12T01:34:35.459Z,75.42
2018-12-12T01:37:04.731Z,75.40
2018-12-12T01:39:33.939Z,75.24
2018-12-12T01:42:03.164Z,75.58
2018-12-12T01:44:32.317Z,75.69
2018-12-12T01:47:01.524Z,75.52
2018-12-12T01:49:30.643Z,75.48
2018-12-12T01:51:59.836Z,75.33
2018-12-12T01:54:29.028Z,75.20
2018-12-12T01:56:58.199Z,75.39
2018-12-12T01:59:27.372Z,75.48
2018-12-12T02:01:56.516Z,75.27
2018-12-12T02:04:25.752Z,75.61
2018-12-12T02:06:54.862Z,75.66
2018-12-12T02:09:24.046Z,75.33
2018-12-12T02:11:53.255Z,75.65
2018-12-12T02:14:22.448Z,75.14
2018-12-12T02:16:51.639Z,74.97
2018-12-12T02:19:20.988Z,74.83
2018-12-12T02:21:50.223Z,75.12
2018-12-12T02:24:19.372Z,75.03
2018-12-12T02:26:48.614Z,74.96
2018-12-12T02:29:17.747Z,75.21
2018-12-12T02:31:46.962Z,75.08
2018-12-12T02:34:16.107Z,75.65
2018-12-12T02:36:45.288Z,75.44
2018-12-12T02:39:14.528Z,75.78
2018-12-12T02:41:43.666Z,75.77
2018-12-12T02:44:12.769Z,75.97
2018-12-12T02:46:41.936Z,76.06
2018-12-12T02:49:11.128Z,76.14
2018-12-12T02:51:40.348Z,75.82
2018-12-12T02:54:09.516Z,75.77
2018-12-12T02:56:38.730Z,76.06
2018-12-12T02:59:07.915Z,75.60
2018-12-12T03:01:37.134Z,75.71
2018-12-12T03:04:06.312Z,76.12
2018-12-12T03:06:35.479Z,75.79
2018-12-12T03:09:07.218Z,75.69
2018-12-12T03:11:36.403Z,75.76
2018-12-12T03:14:05.587Z,75.67
2018-12-12T03:16:34.758Z,75.80
2018-12-12T03:19:03.894Z,75.82
2018-12-12T03:21:33.059Z,75.73
2018-12-12T03:24:02.197Z,75.37
2018-12-12T03:26:31.403Z,75.78
2018-12-12T03:29:00.535Z,75.64
2018-12-12T03:31:29.699Z,75.52
2018-12-12T03:33:58.855Z,75.12
2018-12-12T03:36:28.041Z,75.08
2018-12-12T03:38:57.289Z,74.90
2018-12-12T03:41:26.542Z,74.46
2018-12-12T03:43:55.851Z,74.77
2018-12-12T03:46:25.084Z,74.51
2018-12-12T03:48:54.298Z,74.75
2018-12-12T03:51:23.470Z,74.42
2018-12-12T03:53:52.546Z,74.19
2018-12-12T03:56:21.674Z,74.42
2018-12-12T03:58:50.790Z,74.41
2018-12-12T04:01:19.963Z,74.38
2018-12-12T04:03:49.355Z,74.21
2018-12-12T04:06:18.573Z,74.38
2018-12-12T04:08:47.724Z,74.28
2018-12-12T04:11:16.952Z,74.26
2018-12-12T04:13:46.103Z,74.30
2018-12-12T04:16:15.603Z,74.32
2018-12-12T04:18:44.787Z,74.30
2018-12-12T04:21:14.077Z,74.41
2018-12-12T04:23:43.240Z,74.04
2018-12-12T04:26:12.428Z,73.86
2018-12-12T04:28:41.555Z,73.93
2018-12-12T04:31:10.732Z,74.17
2018-12-12T04:33:40.009Z,73.76
2018-12-12T04:36:09.320Z,73.88
2018-12-12T04:38:38.484Z,74.22
2018-12-12T04:41:07.691Z,74.50
2018-12-12T04:43:36.901Z,74.59
2018-12-12T04:46:06.057Z,74.30
2018-12-12T04:48:35.346Z,74.21
2018-12-12T04:51:04.580Z,73.92
2018-12-12T04:53:33.916Z,73.79
2018-12-12T04:56:02.962Z,73.54
2018-12-12T04:58:32.163Z,73.43
2018-12-12T05:01:01.398Z,73.99
2018-12-12T05:03:30.606Z,73.98
2018-12-12T05:05:59.888Z,74.07
2018-12-12T05:08:29.029Z,73.95
2018-12-12T05:10:58.300Z,73.90
2018-12-12T05:13:27.431Z,73.65
2018-12-12T05:15:56.583Z,73.49
2018-12-12T05:18:25.751Z,73.16
2018-12-12T05:20:55.079Z,73.41
2018-12-12T05:23:24.248Z,72.93
2018-12-12T05:25:53.438Z,73.31
2018-12-12T05:28:22.732Z,72.78
2018-12-12T05:30:51.978Z,73.01
2018-12-12T05:33:21.069Z,72.67
2018-12-12T05:35:50.267Z,72.77
2018-12-12T05:38:19.433Z,72.83
2018-12-12T05:40:48.791Z,72.61
2018-12-12T05:43:18.012Z,72.52
2018-12-12T05:45:47.230Z,72.87
2018-12-12T05:48:16.347Z,72.71
2018-12-12T05:50:45.565Z,72.52
2018-12-12T05:53:14.773Z,73.01
2018-12-12T05:55:43.935Z,72.32
2018-12-12T05:58:13.157Z,72.37
2018-12-12T06:00:42.384Z,72.50
2018-12-12T06:03:11.553Z,72.12
2018-12-12T06:05:40.745Z,72.46
2018-12-12T06:08:09.974Z,72.23
2018-12-12T06:10:39.175Z,72.27
2018-12-12T06:13:08.315Z,72.04
2018-12-12T06:15:37.562Z,72.40
2018-12-12T06:18:06.746Z,72.68
2018-12-12T06:20:35.947Z,72.22
2018-12-12T06:23:05.136Z,72.18
2018-12-12T06:25:34.350Z,72.43
2018-12-12T06:28:03.876Z,72.55
2018-12-12T06:30:33.031Z,72.38
2018-12-12T06:33:02.168Z,72.36
2018-12-12T06:35:31.352Z,72.40
2018-12-12T06:38:00.558Z,72.05
2018-12-12T06:40:29.748Z,71.97
2018-12-12T06:42:58.893Z,72.23
2018-12-12T06:45:28.088Z,71.95
2018-12-12T06:47:57.223Z,71.83
2018-12-12T06:50:26.525Z,72.13
2018-12-12T06:52:55.709Z,71.92
2018-12-12T06:55:24.924Z,71.95
2018-12-12T06:57:54.107Z,72.00
2018-12-12T07:00:23.315Z,72.20
2018-12-12T07:02:52.483Z,72.00
2018-12-12T07:05:21.718Z,71.90
2018-12-12T07:07:50.848Z,71.85
2018-12-12T07:10:20.032Z,71.95
2018-12-12T07:12:49.225Z,71.61
2018-12-12T07:15:18.424Z,71.93
2018-12-12T07:17:47.587Z,71.95
2018-12-12T07:20:16.790Z,71.55
2018-12-12T07:22:45.928Z,71.57
2018-12-12T07:25:15.056Z,71.51
2018-12-12T07:27:44.221Z,71.51
2018-12-12T07:30:13.406Z,71.35
2018-12-12T07:32:42.604Z,71.52
2018-12-12T07:35:11.896Z,71.69
2018-12-12T07:37:41.249Z,71.55
2018-12-12T07:40:10.448Z,71.40
2018-12-12T07:42:39.608Z,71.43
2018-12-12T07:45:08.920Z,71.88
2018-12-12T07:47:38.105Z,71.68
2018-12-12T07:50:07.759Z,71.92
2018-12-12T07:52:36.895Z,71.50
2018-12-12T07:55:06.100Z,71.60
2018-12-12T07:57:35.228Z,71.70
2018-12-12T08:00:05.312Z,71.42
2018-12-12T08:02:34.585Z,71.47
2018-12-12T08:05:04.279Z,71.48
2018-12-12T08:07:33.542Z,71.32
2018-12-12T08:10:02.735Z,71.38
2018-12-12T08:12:32.002Z,71.41
2018-12-12T08:15:01.228Z,71.61
2018-12-12T08:17:30.391Z,71.20
2018-12-12T08:19:59.508Z,71.15
2018-12-12T08:22:28.709Z,71.15
2018-12-12T08:24:57.896Z,71.08
2018-12-12T08:27:27.180Z,71.33
2018-12-12T08:29:56.359Z,71.43
2018-12-12T08:32:25.565Z,71.46
2018-12-12T08:34:54.678Z,71.34
2018-12-12T08:37:23.877Z,71.21
2018-12-12T08:39:53.020Z,71.01
2018-12-12T08:42:22.335Z,70.62
2018-12-12T08:44:51.503Z,70.75
2018-12-12T08:47:20.742Z,70.85
2018-12-12T08:49:49.960Z,70.63
2018-12-12T08:52:19.288Z,71.02
2018-12-12T08:54:48.508Z,70.62
2018-12-12T08:57:18.359Z,70.78
2018-12-12T08:59:47.481Z,70.61
2018-12-12T09:02:16.685Z,70.78
2018-12-12T09:04:45.849Z,70.88
2018-12-12T09:07:15.089Z,70.97
2018-12-12T09:09:44.342Z,70.53
2018-12-12T09:12:13.503Z,70.50
2018-12-12T09:14:42.737Z,70.36
2018-12-12T09:17:11.886Z,70.26
2018-12-12T09:19:41.031Z,70.29
2018-12-12T09:22:10.229Z,70.17
2018-12-12T09:24:39.459Z,70.32
2018-12-12T09:27:08.637Z,70.47
2018-12-12T09:29:37.743Z,70.26
2018-12-12T09:32:06.964Z,70.48
2018-12-12T09:34:36.173Z,70.45
2018-12-12T09:37:05.411Z,70.61
2018-12-12T09:39:34.608Z,70.34
2018-12-12T09:42:03.820Z,71.60
2018-12-12T09:44:33.074Z,70.92
2018-12-12T09:47:02.531Z,71.33
2018-12-12T09:49:31.698Z,71.56
2018-12-12T09:52:00.915Z,70.97
2018-12-12T09:54:30.056Z,70.74
2018-12-12T09:56:59.275Z,70.87
2018-12-12T09:59:28.391Z,70.75
2018-12-12T10:01:57.544Z,69.98
2018-12-12T10:04:26.728Z,69.40
2018-12-12T10:06:55.816Z,69.40
2018-12-12T10:09:25.217Z,69.50
2018-12-12T10:11:54.636Z,69.72
2018-12-12T10:14:23.819Z,69.75
2018-12-12T10:16:53.040Z,69.64
2018-12-12T10:19:22.234Z,69.13
2018-12-12T10:21:51.776Z,69.67
2018-12-12T10:24:21.376Z,69.82
2018-12-12T10:26:50.520Z,69.83
2018-12-12T10:29:19.958Z,69.62
2018-12-12T10:31:49.144Z,69.72
2018-12-12T10:34:18.362Z,69.96
2018-12-12T10:36:47.517Z,69.90
2018-12-12T10:39:16.640Z,69.47
2018-12-12T10:41:46.001Z,69.92
2018-12-12T10:44:15.132Z,69.47
2018-12-12T10:46:44.412Z,69.45
2018-12-12T10:49:13.677Z,69.74
2018-12-12T10:51:42.936Z,69.69
2018-12-12T10:54:12.079Z,70.43
2018-12-12T10:56:41.222Z,70.45
2018-12-12T10:59:10.437Z,71.04
2018-12-12T11:01:44.977Z,70.57
2018-12-12T11:04:14.126Z,71.00
2018-12-12T11:06:43.356Z,71.19
2018-12-12T11:09:12.520Z,71.53
2018-12-12T11:11:41.704Z,71.48
2018-12-12T11:14:10.943Z,71.49
2018-12-12T11:16:40.122Z,71.74
2018-12-12T11:19:09.330Z,72.10
2018-12-12T11:21:38.453Z,72.09
2018-12-12T11:24:07.581Z,72.29
2018-12-12T11:26:36.792Z,72.02
2018-12-12T11:29:05.987Z,72.61
2018-12-12T11:31:35.493Z,72.52
2018-12-12T11:34:04.632Z,72.96
2018-12-12T11:36:33.804Z,72.69
2018-12-12T11:39:03.200Z,72.63
2018-12-12T11:41:32.346Z,73.17
2018-12-12T11:44:01.413Z,73.39
2018-12-12T11:46:30.595Z,73.47
2018-12-12T11:48:59.741Z,73.33
2018-12-12T11:51:28.979Z,73.37
2018-12-12T11:53:58.124Z,73.57
2018-12-12T11:56:27.339Z,73.18
2018-12-12T11:58:56.502Z,72.96
2018-12-12T12:01:25.665Z,73.47
2018-12-12T12:03:56.846Z,73.33
2018-12-12T12:06:26.119Z,73.71
2018-12-12T12:08:55.286Z,73.61
2018-12-12T12:11:24.436Z,74.07
2018-12-12T12:13:53.656Z,73.96
2018-12-12T12:16:22.896Z,74.55
2018-12-12T12:18:52.100Z,74.60
2018-12-12T12:21:21.306Z,74.60
2018-12-12T12:23:50.504Z,74.10
2018-12-12T12:26:19.787Z,74.19
2018-12-12T12:28:49.007Z,73.78
2018-12-12T12:31:19.568Z,73.71
2018-12-12T12:33:48.719Z,73.21
2018-12-12T12:36:17.954Z,73.46
2018-12-12T12:38:47.130Z,73.50
2018-12-12T12:41:16.195Z,73.71
2018-12-12T12:43:45.313Z,73.37
2018-12-12T12:46:14.415Z,73.59
2018-12-12T12:48:50.064Z,73.14
2018-12-12T12:51:19.293Z,73.07
2018-12-12T12:53:48.387Z,73.04
2018-12-12T12:56:17.560Z,73.12
2018-12-12T12:58:46.695Z,73.37
2018-12-12T13:01:16.032Z,73.60
2018-12-12T13:03:45.183Z,73.73
2018-12-12T13:06:14.386Z,73.47
2018-12-12T13:08:43.568Z,73.42
2018-12-12T13:11:14.956Z,74.15
2018-12-12T13:13:43.900Z,74.04
2018-12-12T13:16:13.078Z,74.02
2018-12-12T13:18:42.150Z,74.13
2018-12-12T13:21:11.326Z,74.14
2018-12-12T13:23:47.177Z,74.27
2018-12-12T13:26:16.383Z,74.30
2018-12-12T13:28:45.580Z,73.86
2018-12-12T13:31:14.684Z,73.73
2018-12-12T13:33:43.886Z,73.75
2018-12-12T13:36:13.043Z,73.50
2018-12-12T13:38:42.300Z,73.15
2018-12-12T13:41:11.513Z,72.80
2018-12-12T13:43:40.747Z,72.71
2018-12-12T13:46:09.984Z,72.86
2018-12-12T13:48:39.208Z,73.21
2018-12-12T13:51:08.392Z,73.31
2018-12-12T13:53:37.546Z,73.31
2018-12-12T13:56:06.774Z,73.77
2018-12-12T13:58:35.971Z,73.88
2018-12-12T14:01:05.143Z,73.67
2018-12-12T14:03:34.449Z,73.75
2018-12-12T14:06:03.758Z,74.07
2018-12-12T14:08:33.003Z,73.31
2018-12-12T14:11:02.203Z,73.28
2018-12-12T14:13:31.416Z,73.40
2018-12-12T14:16:00.561Z,73.86
2018-12-12T14:18:29.882Z,73.85
2018-12-12T14:20:59.015Z,73.83
2018-12-12T14:23:28.195Z,74.02
2018-12-12T14:25:57.314Z,74.30
2018-12-12T14:28:26.516Z,74.40
2018-12-12T14:30:55.756Z,74.89
2018-12-12T14:33:24.919Z,75.20
2018-12-12T14:35:54.148Z,75.05
2018-12-12T14:38:23.322Z,75.22
2018-12-12T14:40:52.506Z,74.89
2018-12-12T14:43:21.720Z,75.15
2018-12-12T14:45:50.912Z,75.06
2018-12-12T14:48:20.084Z,75.20
2018-12-12T14:50:49.257Z,74.90
2018-12-12T14:53:18.432Z,75.25
2018-12-12T14:55:47.593Z,75.33
2018-12-12T14:58:16.840Z,75.21
2018-12-12T15:00:46.039Z,75.08
2018-12-12T15:03:15.282Z,74.76
2018-12-12T15:05:44.547Z,74.74
2018-12-12T15:08:13.673Z,75.14
2018-12-12T15:10:42.924Z,74.43
2018-12-12T15:13:12.080Z,74.70
2018-12-12T15:15:41.268Z,74.31
2018-12-12T15:18:10.465Z,74.20
2018-12-12T15:20:39.718Z,74.30
2018-12-12T15:23:08.955Z,74.82
2018-12-12T15:25:38.206Z,75.05
2018-12-12T15:28:07.401Z,75.25
2018-12-12T15:30:36.609Z,75.14
2018-12-12T15:33:05.853Z,75.16
2018-12-12T15:35:35.091Z,74.98
2018-12-12T15:38:04.360Z,75.37
2018-12-12T15:40:33.654Z,75.09
2018-12-12T15:43:02.914Z,75.27
2018-12-12T15:45:32.448Z,74.80
2018-12-12T15:48:01.638Z,74.33
2018-12-12T15:50:31.870Z,74.22
2018-12-12T15:53:01.291Z,74.39
2018-12-12T15:55:30.445Z,73.82
2018-12-12T15:57:59.620Z,73.37
2018-12-12T16:00:29.308Z,73.50
2018-12-12T16:02:58.728Z,73.65
2018-12-12T16:05:27.985Z,73.81
2018-12-12T16:07:57.198Z,73.79
2018-12-12T16:10:26.516Z,73.69
2018-12-12T16:12:55.687Z,74.00
2018-12-12T16:15:24.865Z,74.07
2018-12-12T16:17:54.146Z,74.32
2018-12-12T16:20:23.361Z,74.81
2018-12-12T16:22:52.459Z,74.77
2018-12-12T16:25:21.669Z,74.79
2018-12-12T16:27:52.275Z,75.10
2018-12-12T16:30:21.609Z,74.90
2018-12-12T16:32:50.849Z,75.28
2018-12-12T16:35:20.023Z,75.00
2018-12-12T16:37:49.233Z,75.06
2018-12-12T16:40:18.496Z,75.37
2018-12-12T16:42:47.832Z,74.96
2018-12-12T16:45:17.052Z,74.83
2018-12-12T16:47:46.216Z,74.70
2018-12-12T16:50:15.427Z,75.12
2018-12-12T16:52:44.628Z,75.04
2018-12-12T16:55:13.888Z,74.53
2018-12-12T16:57:43.100Z,74.99
2018-12-12T17:00:12.392Z,75.02
2018-12-12T17:02:41.612Z,74.96
2018-12-12T17:05:10.989Z,74.77
2018-12-12T17:07:40.270Z,75.03
2018-12-12T17:10:10.796Z,74.94
2018-12-12T17:12:40.377Z,74.93
2018-12-12T17:15:09.744Z,74.66
2018-12-12T17:17:38.958Z,74.43
2018-12-12T17:20:08.869Z,74.93
2018-12-12T17:22:37.971Z,75.02
2018-12-12T17:25:07.303Z,75.23
2018-12-12T17:27:36.668Z,75.12
2018-12-12T17:30:07.848Z,75.46
2018-12-12T17:32:37.120Z,75.52
2018-12-12T17:35:08.938Z,75.80
2018-12-12T17:37:38.782Z,75.63
2018-12-12T17:40:08.035Z,75.90
2018-12-12T17:42:37.325Z,75.36
2018-12-12T17:45:06.673Z,75.59
2018-12-12T17:47:35.903Z,75.52
2018-12-12T17:50:05.965Z,74.59
2018-12-12T17:52:35.202Z,74.70
2018-12-12T17:55:04.512Z,75.08
2018-12-12T17:57:33.711Z,74.91
2018-12-12T18:00:03.360Z,74.48
2018-12-12T18:02:32.589Z,74.71
2018-12-12T18:05:01.884Z,74.53
2018-12-12T18:07:31.301Z,74.64
2018-12-12T18:10:00.501Z,74.16
2018-12-12T18:12:29.844Z,74.08
2018-12-12T18:14:59.068Z,74.19
2018-12-12T18:17:28.368Z,74.35
2018-12-12T18:19:57.624Z,74.06
2018-12-12T18:22:27.080Z,73.74
2018-12-12T18:24:56.260Z,73.73
2018-12-12T18:27:25.553Z,73.77
2018-12-12T18:29:54.684Z,73.81
2018-12-12T18:32:23.804Z,73.79
2018-12-12T18:34:53.086Z,73.29
2018-12-12T18:37:22.353Z,73.18
2018-12-12T18:39:51.627Z,73.43
2018-12-12T18:42:21.224Z,73.46
2018-12-12T18:44:50.436Z,73.54
2018-12-12T18:47:19.629Z,73.46
2018-12-12T18:49:48.867Z,73.62
2018-12-12T18:52:18.126Z,73.71
2018-12-12T18:54:48.242Z,73.66
2018-12-12T18:57:17.541Z,73.48
2018-12-12T18:59:46.763Z,73.81
2018-12-12T19:02:15.997Z,73.88
2018-12-12T19:04:45.202Z,73.71
2018-12-12T19:07:14.343Z,73.60
2018-12-12T19:09:43.555Z,73.81
2018-12-12T19:12:12.771Z,73.37
2018-12-12T19:15:12.795Z,73.62
2018-12-12T19:17:42.016Z,73.90
2018-12-12T19:20:11.298Z,73.62
2018-12-12T19:22:40.483Z,73.91
2018-12-12T19:25:09.978Z,73.62
2018-12-12T19:27:39.169Z,74.17
2018-12-12T19:30:09.403Z,74.09
2018-12-12T19:32:38.657Z,73.96
2018-12-12T19:35:09.905Z,73.96
2018-12-12T19:37:39.299Z,74.17
2018-12-12T19:40:09.272Z,74.21
2018-12-12T19:42:38.520Z,74.40
2018-12-12T19:45:08.775Z,74.29
2018-12-12T19:47:38.539Z,74.16
2018-12-12T19:50:08.736Z,74.30
2018-12-12T19:52:38.227Z,74.52
2018-12-12T19:55:07.526Z,74.24
2018-12-12T19:57:36.757Z,74.23
2018-12-12T20:00:07.036Z,74.17
2018-12-12T20:02:36.426Z,74.26
2018-12-12T20:05:06.313Z,74.08
2018-12-12T20:07:35.481Z,74.29
2018-12-12T20:10:04.976Z,74.38
2018-12-12T20:12:34.154Z,74.16
2018-12-12T20:15:03.346Z,74.21
2018-12-12T20:17:33.557Z,74.55
2018-12-12T20:20:02.979Z,74.30
2018-12-12T20:22:32.135Z,74.20
2018-12-12T20:25:01.333Z,74.50
2018-12-12T20:27:30.516Z,74.36
2018-12-12T20:29:59.651Z,74.97
2018-12-12T20:32:29.029Z,74.93
2018-12-12T20:34:58.220Z,75.08
2018-12-12T20:37:27.489Z,75.44
2018-12-12T20:39:56.672Z,75.32
2018-12-12T20:42:25.892Z,75.11
2018-12-12T20:44:55.089Z,75.48
2018-12-12T20:47:24.292Z,75.88
2018-12-12T20:49:53.492Z,76.05
2018-12-12T20:52:22.639Z,75.80
2018-12-12T20:54:51.875Z,76.17
2018-12-12T20:57:21.145Z,76.12
2018-12-12T20:59:50.415Z,75.78
2018-12-12T21:02:19.752Z,76.11
2018-12-12T21:04:48.961Z,76.02
2018-12-12T21:07:18.173Z,76.46
2018-12-12T21:09:47.476Z,76.03
2018-12-12T21:12:16.751Z,76.42
2018-12-12T21:14:45.920Z,76.01
2018-12-12T21:17:15.238Z,76.13
2018-12-12T21:19:44.413Z,75.97
2018-12-12T21:22:13.604Z,76.05
2018-12-12T21:24:42.773Z,76.05
2018-12-12T21:27:12.033Z,76.06
2018-12-12T21:29:41.199Z,75.94
2018-12-12T21:32:10.427Z,76.01
2018-12-12T21:34:39.626Z,75.78
2018-12-12T21:37:08.848Z,75.81
2018-12-12T21:39:38.052Z,76.31
2018-12-12T21:42:07.244Z,76.39
2018-12-12T21:44:36.576Z,76.26
2018-12-12T21:47:05.818Z,76.18
2018-12-12T21:49:35.154Z,76.15
2018-12-12T21:52:04.433Z,76.24
2018-12-12T21:54:33.644Z,75.84
2018-12-12T21:57:02.836Z,75.91
2018-12-12T21:59:32.064Z,76.44
2018-12-12T22:02:01.401Z,75.75
2018-12-12T22:04:37.060Z,76.09
2018-12-12T22:07:01.884Z,75.64
2018-12-12T22:09:31.184Z,75.80
2018-12-12T22:12:00.295Z,76.20
2018-12-12T22:14:29.461Z,75.82
2018-12-12T22:16:58.715Z,76.41
2018-12-12T22:19:27.896Z,76.21
2018-12-12T22:21:57.104Z,75.96
2018-12-12T22:24:26.381Z,76.15
2018-12-12T22:26:55.604Z,76.49
2018-12-12T22:29:24.829Z,76.18
2018-12-12T22:31:54.204Z,76.71
2018-12-12T22:34:23.407Z,76.24
2018-12-12T22:36:52.584Z,76.58
2018-12-12T22:39:21.761Z,76.62
2018-12-12T22:41:50.895Z,76.28
2018-12-12T22:44:20.092Z,76.39
2018-12-12T22:46:49.374Z,76.16
2018-12-12T22:49:18.571Z,75.84
2018-12-12T22:51:47.759Z,76.20
2018-12-12T22:54:16.980Z,75.86
2018-12-12T22:56:46.236Z,75.97
2018-12-12T22:59:15.427Z,75.69
2018-12-12T23:01:44.705Z,75.85
2018-12-12T23:04:13.795Z,75.64
2018-12-12T23:06:42.957Z,75.64
2018-12-12T23:09:12.404Z,75.77
2018-12-12T23:11:41.581Z,75.26
2018-12-12T23:14:10.761Z,75.61
2018-12-12T23:16:40.022Z,75.64
2018-12-12T23:19:09.215Z,75.23
2018-12-12T23:21:38.452Z,75.12
2018-12-12T23:24:07.664Z,74.96
2018-12-12T23:26:37.082Z,75.03
2018-12-12T23:29:06.346Z,75.06
2018-12-12T23:31:35.576Z,75.07
2018-12-12T23:34:04.772Z,74.96
2018-12-12T23:36:33.938Z,74.76
2018-12-12T23:39:03.792Z,74.94
2018-12-12T23:41:33.006Z,74.66
2018-12-12T23:44:02.165Z,74.70
2018-12-12T23:46:31.358Z,74.34
2018-12-12T23:49:00.582Z,74.53
2018-12-12T23:51:29.732Z,74.85
2018-12-12T23:53:58.922Z,74.08
2018-12-12T23:56:28.060Z,74.36
2018-12-12T23:58:57.295Z,74.05
